Etusivu
METAR-TAF:

METAR-TAF

Lentoasemat :

El Paso, Texas, Yhdysvallat

Leveyspiiri: 31-48-40N, Pituuspiiri: 106-22-33W, korkeus merenpinnasta: 1206 m

Tämänhetkinen sää

Tämä raportti tehtiin 53 minuuttia sitten, kello 11.51 UTC
tyyntä
Lämpötila 6°C
Kosteus 52%
Ilmanpaine 1028 hPa
Näkyvyys: 16.1 km
selkeää

METAR: KELP 151151Z 00000KT 10SM CLR 06/M03 A3035 RMK AO2 SLP252 T00561028 10083 20039 58003

Aika: 06:44 (12:44 UTC)

Sääennuste

Tämä raportti tehtiin 1 tunti ja 17 minuuttia sitten, kello 11.27 UTC
Ennuste voimassa 15. päivästä klo 12 UTC - 16. päivään klo 12 UTC
Tuuli 5 kn kaakosta
Näkyvyys: 10 km
Muutamia pilviä 25000 ft:n korkeudessa
From 16. päivästä klo 0600 UTC
Tuuli 4 kn eri suunnista
Näkyvyys: 10 km
Hajonneita pilviä 25000 ft:n korkeudessa

TAF: KELP 151127Z 1512/1612 14005KT P6SM FEW250 FM160600 VRB04KT P6SM BKN250

Säähavainnot ja -ennusteet yli 4000 lentoasemalta (METAR- ja TAF-raportit).

Käytössä olevat sääasemat on merkitty karttaan keltaisilla ja punaisilla pisteillä.

Aseta hiiri pisteen päälle nähdäksesi sääaseman nimen.

Klikkaa sitten nähdäksesi säähavainnot ja -ennusteet.

Kartan vaihtaminen: klikkaa mustalla rastilla varustettuja vihreitä pisteitä, niin voit zoomata sisään; viivalla varustettua vihreää pistettä, niin voit zoomata ulos tai vihreitä nuolia, niin pääset viereisille kartoille.


METAR-TAF: